Time;durP1;ratioP1;P1;durP2;ratioP2;P2;SDS_P1;SDS_P2;PMS_P1;PMS_P2;Temp;Humidity;BMP_temperature;BMP_pressure;BME280_temperature;BME280_humidity;BME280_pressure;Samples;Min_cycle;Max_cycle;Signal;HPM_P1;HPM_P2
2022/12/01 00:01:13;;;;;;;7.35;5.20;;;;;;;18.53;44.97;102589.06;16129150;19;130765;-39
2022/12/01 00:06:35;;;;;;;6.35;5.07;;;;;;;18.51;45.05;102588.41;16130253;19;133970;-38
2022/12/01 00:11:57;;;;;;;7.63;5.50;;;;;;;18.50;44.73;102583.91;16129061;19;129515;-38
2022/12/01 00:17:19;;;;;;;6.45;5.00;;;;;;;18.48;44.53;102569.41;16128899;19;129632;-38
2022/12/01 00:22:46;;;;;;;5.40;4.57;;;;;;;18.45;44.76;102571.53;16126649;19;129090;-38
2022/12/01 00:28:08;;;;;;;6.43;5.10;;;;;;;18.44;44.32;102560.66;16125506;19;131132;-38
2022/12/01 00:33:30;;;;;;;5.35;4.50;;;;;;;18.41;44.26;102564.69;16127690;19;129525;-38
2022/12/01 00:38:54;;;;;;;6.40;5.28;;;;;;;18.41;44.01;102566.59;16126867;19;129427;-38
2022/12/01 00:44:15;;;;;;;6.90;5.45;;;;;;;18.37;44.30;102579.97;16128017;19;134224;-38
2022/12/01 00:49:37;;;;;;;7.65;5.93;;;;;;;18.34;43.93;102574.81;16124737;19;129874;-39
2022/12/01 00:54:59;;;;;;;7.10;5.78;;;;;;;18.30;44.01;102579.09;16127813;19;129883;-38
2022/12/01 01:00:20;;;;;;;6.90;5.80;;;;;;;18.27;43.98;102569.28;16128454;19;132029;-39
2022/12/01 01:05:42;;;;;;;7.00;6.00;;;;;;;18.25;43.88;102573.28;16126302;19;129535;-39
2022/12/01 01:11:05;;;;;;;6.75;5.65;;;;;;;18.25;43.55;102587.16;16124650;19;130063;-38
2022/12/01 01:16:27;;;;;;;7.05;5.70;;;;;;;18.23;43.61;102589.25;16127891;19;129417;-38
2022/12/01 01:21:49;;;;;;;7.88;6.53;;;;;;;18.21;43.19;102591.41;16125357;19;129612;-38
2022/12/01 01:27:11;;;;;;;7.72;6.32;;;;;;;18.19;43.27;102599.06;16122448;19;129858;-39
2022/12/01 01:32:32;;;;;;;7.47;5.78;;;;;;;18.18;43.13;102612.03;16122862;19;129218;-38
2022/12/01 01:37:57;;;;;;;7.53;5.45;;;;;;;18.17;42.83;102620.56;16124731;19;129431;-38
2022/12/01 01:43:43;;;;;;;7.43;5.78;;;;;;;18.15;43.02;102613.28;16121938;19;129459;-40
2022/12/01 01:49:10;;;;;;;8.40;6.22;;;;;;;18.12;42.91;102616.47;16123011;19;130047;-38
2022/12/01 01:54:36;;;;;;;10.52;6.05;;;;;;;18.12;42.98;102618.41;16123145;19;130571;-38
2022/12/01 02:00:03;;;;;;;;;;;;;;;18.06;42.79;102622.81;16122820;19;129937;-38
2022/12/01 02:05:29;;;;;;;6.75;5.80;;;;;;;18.08;42.42;102617.94;16120977;19;129529;-38
2022/12/01 02:11:16;;;;;;;9.23;6.10;;;;;;;18.05;42.37;102615.56;16121789;19;129512;-38
2022/12/01 02:16:56;;;;;;;8.73;5.78;;;;;;;18.06;42.41;102617.28;16118686;19;129565;-38
2022/12/01 02:22:34;;;;;;;7.65;6.38;;;;;;;18.04;42.22;102618.53;16120856;19;129746;-38
2022/12/01 02:28:28;;;;;;;9.15;6.95;;;;;;;18.04;42.49;102618.53;16120392;19;129654;-38
2022/12/01 02:34:10;;;;;;;8.80;5.68;;;;;;;18.01;42.09;102608.72;16117706;19;130767;-38
2022/12/01 02:39:44;;;;;;;9.10;5.68;;;;;;;17.99;42.27;102613.59;16118718;19;129589;-38
2022/12/01 02:45:12;;;;;;;9.13;6.75;;;;;;;17.98;42.24;102620.19;16118797;19;129364;-39
2022/12/01 02:50:37;;;;;;;7.97;5.85;;;;;;;17.96;41.96;102614.00;16117390;19;129882;-38
2022/12/01 02:55:59;;;;;;;9.45;5.90;;;;;;;17.96;41.95;102614.00;16119481;19;129856;-38
2022/12/01 03:01:45;;;;;;;9.65;6.35;;;;;;;17.96;42.06;102614.00;16116380;19;129707;-38
2022/12/01 03:07:19;;;;;;;9.90;6.90;;;;;;;17.91;42.12;102611.81;16117976;19;129206;-38
2022/12/01 03:12:57;;;;;;;9.20;6.35;;;;;;;17.90;41.91;102606.50;16119351;19;130091;-38
2022/12/01 03:18:28;;;;;;;8.00;5.80;;;;;;;17.88;41.83;102614.13;16115807;19;129478;-38
2022/12/01 03:24:12;;;;;;;9.18;5.95;;;;;;;17.88;41.51;102603.94;16118402;19;130697;-38
2022/12/01 03:29:43;;;;;;;12.65;7.13;;;;;;;17.87;41.84;102604.13;16119742;19;130109;-38
2022/12/01 03:35:13;;;;;;;9.18;5.95;;;;;;;17.85;41.55;102604.31;16116693;19;130213;-40
2022/12/01 03:40:38;;;;;;;9.38;6.07;;;;;;;17.84;41.88;102600.72;16119633;19;129524;-38
2022/12/01 03:46:24;;;;;;;7.90;6.13;;;;;;;17.85;41.43;102607.94;16118825;19;130192;-38
2022/12/01 03:51:57;;;;;;;8.53;6.30;;;;;;;17.84;41.68;102606.25;16133286;19;130795;-38
2022/12/01 03:57:28;;;;;;;9.13;6.15;;;;;;;17.83;41.68;102606.44;16130014;19;129486;-38
2022/12/01 04:02:55;;;;;;;9.18;6.35;;;;;;;17.81;41.74;102601.09;16130122;19;133661;-38
2022/12/01 04:08:17;;;;;;;8.50;6.00;;;;;;;17.81;41.92;102606.66;16127833;19;129611;-38
2022/12/01 04:13:39;;;;;;;10.20;6.70;;;;;;;17.80;41.49;102607.69;16130741;19;129713;-39
2022/12/01 04:19:01;;;;;;;10.02;7.03;;;;;;;17.80;41.49;102612.38;16129191;19;129932;-38
2022/12/01 04:24:22;;;;;;;9.05;5.65;;;;;;;17.79;41.43;102605.97;16127832;19;130230;-38
2022/12/01 04:29:44;;;;;;;9.82;6.35;;;;;;;17.79;41.49;102605.09;16130344;19;129467;-39
2022/12/01 04:35:09;;;;;;;9.50;6.18;;;;;;;17.79;41.40;102600.44;16128850;19;129903;-39
2022/12/01 04:40:31;;;;;;;9.80;6.55;;;;;;;17.77;41.82;102596.19;16129995;19;130344;-38
2022/12/01 04:45:52;;;;;;;8.48;5.80;;;;;;;17.76;41.51;102598.06;16128455;19;129420;-38
2022/12/01 04:51:14;;;;;;;9.60;5.85;;;;;;;17.76;41.43;102589.75;16128174;19;129435;-38
2022/12/01 04:56:36;;;;;;;7.90;5.78;;;;;;;17.77;41.54;102596.19;16128725;19;129628;-38
2022/12/01 05:01:58;;;;;;;7.85;5.43;;;;;;;17.76;41.82;102595.31;16126148;19;130576;-38
2022/12/01 05:07:19;;;;;;;9.13;5.93;;;;;;;17.75;41.84;102596.34;16128390;19;129018;-38
2022/12/01 05:12:41;;;;;;;6.93;5.20;;;;;;;17.74;41.53;102597.41;16127682;19;129456;-38
2022/12/01 05:18:03;;;;;;;7.68;5.68;;;;;;;17.74;41.98;102608.47;16125583;19;129246;-38
2022/12/01 05:23:26;;;;;;;9.52;6.10;;;;;;;17.73;41.42;102601.22;16125988;19;129641;-38
2022/12/01 05:28:48;;;;;;;8.98;5.80;;;;;;;17.73;41.82;102601.22;16126282;19;129301;-38
2022/12/01 05:34:10;;;;;;;6.80;5.00;;;;;;;17.72;41.47;102598.69;16123964;19;129536;-38
2022/12/01 05:39:32;;;;;;;8.07;5.40;;;;;;;17.71;41.66;102608.03;16126113;19;129940;-38
2022/12/01 05:44:53;;;;;;;7.70;5.53;;;;;;;17.71;41.58;102600.59;16126098;19;130534;-38
2022/12/01 05:50:15;;;;;;;8.63;5.60;;;;;;;17.71;41.69;102602.50;16125113;19;129884;-38
2022/12/01 05:55:37;;;;;;;8.55;5.18;;;;;;;17.70;41.70;102607.19;16124525;19;129465;-38
2022/12/01 06:00:59;;;;;;;8.15;5.28;;;;;;;17.69;41.79;102600.78;16120450;19;131158;-38
2022/12/01 06:06:21;;;;;;;7.50;5.07;;;;;;;17.69;41.90;102605.47;16122457;19;129928;-38
2022/12/01 06:11:43;;;;;;;7.60;4.80;;;;;;;17.69;41.93;102603.53;16121511;19;130881;-38
2022/12/01 06:17:04;;;;;;;6.53;4.70;;;;;;;17.68;41.48;102607.38;16122008;19;129067;-39
2022/12/01 06:22:26;;;;;;;7.00;5.18;;;;;;;17.69;41.94;102616.53;16122933;19;129541;-38
2022/12/01 06:27:48;;;;;;;8.55;5.18;;;;;;;17.69;41.57;102619.31;16121220;19;129215;-38
2022/12/01 06:33:10;;;;;;;7.63;4.95;;;;;;;17.68;41.90;102621.22;16118223;19;129883;-38
2022/12/01 06:38:34;;;;;;;7.47;5.10;;;;;;;17.69;41.84;102616.53;16120111;19;130656;-38
2022/12/01 06:43:55;;;;;;;8.57;5.30;;;;;;;17.67;41.47;102625.03;16119161;19;129370;-37
2022/12/01 06:49:18;;;;;;;8.02;5.45;;;;;;;17.67;41.64;102627.78;16119535;19;130015;-38
2022/12/01 06:54:40;;;;;;;13.18;6.28;;;;;;;17.66;41.22;102630.78;16120362;19;131382;-38
2022/12/01 07:00:03;;;;;;;8.95;5.65;;;;;;;17.67;41.59;102638.03;16114287;19;129450;-38
2022/12/01 07:05:25;;;;;;;16.63;5.32;;;;;;;17.64;41.35;102650.34;16117862;19;130046;-38
2022/12/01 07:10:56;;;;;;;8.77;5.47;;;;;;;17.63;41.63;102645.88;16118142;19;130533;-38
2022/12/01 07:16:17;;;;;;;11.55;6.38;;;;;;;17.61;41.69;102652.63;16116899;19;129430;-38
2022/12/01 07:21:39;;;;;;;8.82;5.72;;;;;;;17.59;41.24;102650.09;16119630;19;129440;-38
2022/12/01 07:27:01;;;;;;;8.60;5.72;;;;;;;17.59;41.42;102657.53;16134152;19;130035;-38
2022/12/01 07:32:22;;;;;;;7.50;5.30;;;;;;;17.59;41.61;102660.31;16130640;19;128899;-37
2022/12/01 07:37:45;;;;;;;6.72;5.15;;;;;;;17.56;41.62;102660.69;16131605;19;129566;-37
2022/12/01 07:43:06;;;;;;;8.75;5.13;;;;;;;17.55;41.50;102665.34;16131562;19;129412;-37
2022/12/01 07:48:29;;;;;;;8.88;5.35;;;;;;;17.54;41.37;102664.50;16132639;19;129542;-37
2022/12/01 07:53:52;;;;;;;9.45;5.82;;;;;;;17.53;41.47;102668.28;16133413;19;136666;-38
2022/12/01 07:59:13;;;;;;;7.00;5.28;;;;;;;17.52;41.50;102677.66;16130431;19;129396;-38
2022/12/01 08:04:35;;;;;;;8.70;6.25;;;;;;;17.49;41.04;102675.25;16131165;19;135051;-38
2022/12/01 08:09:57;;;;;;;8.68;5.43;;;;;;;17.49;41.25;102689.09;16128616;19;130506;-38
2022/12/01 08:15:19;;;;;;;7.75;5.35;;;;;;;17.49;41.50;102688.25;16127237;19;129561;-38
2022/12/01 08:20:41;;;;;;;6.50;5.00;;;;;;;17.48;41.45;102700.38;16128805;19;130191;-38
2022/12/01 08:26:05;;;;;;;7.10;5.40;;;;;;;17.46;41.45;102703.34;16131136;19;129693;-39
2022/12/01 08:31:34;;;;;;;6.93;4.82;;;;;;;17.46;41.03;102702.47;16128815;19;129331;-39
2022/12/01 08:36:56;;;;;;;7.57;4.78;;;;;;;17.43;41.04;102712.03;16125940;19;129371;-38
2022/12/01 08:42:18;;;;;;;7.25;5.30;;;;;;;17.43;41.23;102709.25;16128886;19;129896;-38
2022/12/01 08:47:39;;;;;;;6.82;5.30;;;;;;;17.42;41.47;102707.56;16126493;19;129922;-38
2022/12/01 08:53:01;;;;;;;6.88;4.85;;;;;;;17.39;41.14;102711.56;16130943;19;129371;-38
2022/12/01 08:58:23;;;;;;;10.55;5.47;;;;;;;17.40;40.93;102709.66;16128007;19;129143;-39
2022/12/01 09:03:46;;;;;;;7.00;4.57;;;;;;;17.40;41.40;102706.88;16127096;19;129325;-38
2022/12/01 09:09:09;;;;;;;7.05;5.18;;;;;;;17.39;41.16;102710.69;16126173;19;129640;-38
2022/12/01 09:14:36;;;;;;;7.88;5.53;;;;;;;17.39;41.35;102706.03;16127443;19;129273;-38
2022/12/01 09:19:58;;;;;;;7.15;4.95;;;;;;;17.38;41.43;102714.50;16126629;19;129679;-38
2022/12/01 09:25:20;;;;;;;8.80;5.43;;;;;;;17.37;41.34;102724.72;16125690;19;129386;-39
2022/12/01 09:30:41;;;;;;;6.18;4.43;;;;;;;17.38;41.21;102722.81;16125446;19;129489;-38
2022/12/01 09:36:05;;;;;;;7.75;5.38;;;;;;;17.37;41.29;102723.84;16123846;19;129790;-38
2022/12/01 09:42:00;;;;;;;6.82;5.32;;;;;;;17.37;41.08;102723.84;16127379;19;130096;-39
2022/12/01 09:47:32;;;;;;;7.65;5.15;;;;;;;17.34;41.41;102732.56;16124333;19;129610;-38
2022/12/01 09:53:02;;;;;;;;;;;;;;;17.30;41.13;102731.22;16125587;19;129097;-39
2022/12/01 09:58:29;;;;;;;7.85;4.88;;;;;;;17.33;40.90;102730.84;16123954;19;129282;-41
2022/12/01 10:03:56;;;;;;;6.85;4.90;;;;;;;17.32;41.25;102731.91;16123625;19;129447;-43
2022/12/01 10:09:18;;;;;;;7.57;5.05;;;;;;;17.30;41.40;102720.16;16119659;19;129433;-41
2022/12/01 10:14:42;;;;;;;6.78;5.25;;;;;;;17.29;40.98;102715.69;16121861;19;129721;-45
2022/12/01 10:20:20;;;;;;;8.40;4.57;;;;;;;17.30;40.92;102706.34;16121954;19;129145;-39
2022/12/01 10:25:51;;;;;;;6.60;4.70;;;;;;;17.30;40.98;102700.81;16120031;19;129040;-42
2022/12/01 10:31:25;;;;;;;7.68;4.90;;;;;;;17.30;41.39;102695.28;16122874;19;135179;-38
2022/12/01 10:36:47;;;;;;;8.15;4.95;;;;;;;17.28;41.38;102701.00;16122416;19;129650;-38
2022/12/01 10:42:23;;;;;;;6.53;4.28;;;;;;;17.31;41.11;102697.00;16122171;19;130356;-38
2022/12/01 10:48:16;;;;;;;6.17;4.40;;;;;;;17.29;40.91;102693.56;16120087;19;129541;-38
2022/12/01 10:53:38;;;;;;;8.20;5.00;;;;;;;17.26;41.30;102689.28;16120313;19;129477;-38
2022/12/01 10:59:20;;;;;;;6.70;4.63;;;;;;;17.27;41.24;102684.59;16117394;19;129463;-39
2022/12/01 11:04:44;;;;;;;7.85;5.43;;;;;;;17.23;40.92;102684.97;16118461;19;128810;-38
2022/12/01 11:10:14;;;;;;;7.03;5.00;;;;;;;17.24;41.03;102689.44;16116375;19;130359;-39
2022/12/01 11:15:39;;;;;;;9.18;5.78;;;;;;;17.25;41.15;102682.03;16119732;19;129270;-38
2022/12/01 11:21:11;;;;;;;10.05;5.47;;;;;;;17.24;41.22;102686.69;16118266;19;129563;-39
2022/12/01 11:26:33;;;;;;;9.18;5.85;;;;;;;17.22;40.93;102676.88;16119366;19;129326;-40
2022/12/01 11:31:57;;;;;;;9.32;5.50;;;;;;;17.21;40.75;102675.16;16118808;19;130701;-38
2022/12/01 11:37:23;;;;;;;9.68;5.95;;;;;;;17.22;40.79;102669.44;16117104;19;129633;-38
2022/12/01 11:42:55;;;;;;;9.23;6.32;;;;;;;17.21;40.64;102653.91;16116575;19;131031;-38
2022/12/01 11:48:19;;;;;;;11.02;7.05;;;;;;;17.22;40.87;102666.69;16114779;19;129481;-39
2022/12/01 11:53:42;;;;;;;8.43;5.97;;;;;;;17.20;40.49;102657.72;16117524;19;129307;-38
2022/12/01 11:59:11;;;;;;;10.77;6.72;;;;;;;17.21;40.46;102653.91;16114677;19;129418;-38
2022/12/01 12:05:00;;;;;;;10.23;6.53;;;;;;;17.20;40.54;102649.41;16115406;19;129401;-38
2022/12/01 12:10:42;;;;;;;8.10;5.80;;;;;;;17.21;40.34;102650.25;16123240;19;129759;-38
2022/12/01 12:16:16;;;;;;;10.95;6.75;;;;;;;17.19;40.56;102650.47;16131278;19;129565;-39
2022/12/01 12:22:09;;;;;;;10.98;7.40;;;;;;;17.18;40.25;102643.22;16130472;19;130933;-39
2022/12/01 12:27:57;;;;;;;10.90;7.13;;;;;;;17.17;40.33;102630.44;16130195;19;130821;-38
2022/12/01 12:33:28;;;;;;;12.07;7.82;;;;;;;17.16;40.37;102634.25;16128117;19;129339;-39
2022/12/01 12:38:59;;;;;;;10.40;6.80;;;;;;;17.15;40.04;102626.16;16128979;19;130065;-38
2022/12/01 12:44:29;;;;;;;12.52;8.40;;;;;;;17.16;40.22;102612.13;16131470;19;129619;-38
2022/12/01 12:50:16;;;;;;;10.40;7.53;;;;;;;17.15;39.71;102612.34;16127844;19;129522;-38
2022/12/01 12:55:44;;;;;;;10.70;7.43;;;;;;;17.12;40.14;102608.03;16128515;19;129468;-38
2022/12/01 13:01:14;;;;;;;10.55;6.95;;;;;;;17.13;39.98;102611.66;16125884;19;132397;-38
2022/12/01 13:06:42;;;;;;;11.75;6.90;;;;;;;17.10;39.88;102596.34;16123623;19;129932;-38
2022/12/01 13:12:08;;;;;;;10.27;7.03;;;;;;;17.10;40.07;102598.22;16125198;19;130507;-38
2022/12/01 13:17:43;;;;;;;10.40;7.15;;;;;;;17.10;39.97;102585.28;16129538;19;130052;-39
2022/12/01 13:23:08;;;;;;;10.25;6.68;;;;;;;17.08;39.93;102587.38;16123826;19;129538;-38
2022/12/01 13:28:52;;;;;;;10.52;6.47;;;;;;;17.08;39.65;102585.44;16125534;19;134692;-38
2022/12/01 13:34:26;;;;;;;8.23;6.05;;;;;;;17.09;40.00;102586.31;16124783;19;129677;-38
2022/12/01 13:39:53;;;;;;;9.43;6.53;;;;;;;17.08;39.89;102584.59;16128341;19;129264;-38
2022/12/01 13:45:18;;;;;;;8.25;5.55;;;;;;;17.07;39.64;102580.13;16128522;19;129758;-38
2022/12/01 13:50:42;;;;;;;8.65;5.97;;;;;;;17.04;40.03;102570.31;16119930;19;129642;-39
2022/12/01 13:56:24;;;;;;;7.55;5.88;;;;;;;17.06;39.87;102572.88;16126147;19;129237;-38
2022/12/01 14:01:46;;;;;;;8.60;5.97;;;;;;;17.04;39.96;102563.91;16123272;19;131248;-38
2022/12/01 14:07:33;;;;;;;8.23;5.90;;;;;;;17.03;39.81;102568.59;16122254;19;131086;-38
2022/12/01 14:13:01;;;;;;;8.63;5.88;;;;;;;17.02;39.94;102563.25;16122247;19;136397;-39
2022/12/01 14:18:35;;;;;;;8.00;5.60;;;;;;;17.02;39.63;102561.34;16120836;19;129482;-39
2022/12/01 14:24:00;;;;;;;8.40;5.60;;;;;;;17.00;39.57;102562.59;16122168;19;129555;-38
2022/12/01 14:29:25;;;;;;;10.87;6.80;;;;;;;16.97;39.52;102563.00;16121621;19;130074;-38
2022/12/01 14:34:50;;;;;;;11.65;6.95;;;;;;;16.96;39.48;102566.81;16121698;19;129452;-38
2022/12/01 14:40:17;;;;;;;8.55;6.25;;;;;;;16.94;39.62;102564.22;16122079;19;129763;-38
2022/12/01 14:45:53;;;;;;;8.25;6.15;;;;;;;16.93;39.27;102568.03;16120850;19;129968;-38
2022/12/01 14:51:27;;;;;;;8.98;6.18;;;;;;;16.92;39.40;102572.72;16118527;19;130128;-38
2022/12/01 14:56:52;;;;;;;9.75;6.20;;;;;;;16.91;39.50;102575.69;16118537;19;129492;-39
2022/12/01 15:02:14;;;;;;;;;;;;;;;16.87;39.43;102564.13;16120461;19;129631;-39
2022/12/01 15:07:38;;;;;;;7.72;5.38;;;;;;;16.89;39.51;102567.56;16119272;19;129648;-38
2022/12/01 15:13:20;;;;;;;8.00;5.38;;;;;;;16.90;39.60;102571.22;16116783;19;129697;-38
2022/12/01 15:18:42;;;;;;;7.47;5.18;;;;;;;16.87;39.67;102566.91;16116719;19;129369;-38
2022/12/01 15:24:18;;;;;;;7.25;4.93;;;;;;;16.88;39.71;102568.63;16118165;19;129464;-39
2022/12/01 15:29:44;;;;;;;6.50;4.23;;;;;;;16.87;39.67;102571.59;16119682;19;129427;-38
2022/12/01 15:35:15;;;;;;;6.93;4.60;;;;;;;16.87;39.87;102583.50;16119262;19;129069;-38
2022/12/01 15:40:37;;;;;;;7.03;4.50;;;;;;;16.86;39.74;102590.06;16115066;19;129544;-38
2022/12/01 15:46:26;;;;;;;6.30;4.47;;;;;;;16.88;40.03;102599.03;16127300;19;129780;-39
2022/12/01 15:51:49;;;;;;;6.97;4.20;;;;;;;16.86;40.05;102589.22;16133895;19;129415;-38
2022/12/01 15:57:16;;;;;;;8.10;5.18;;;;;;;16.84;39.95;102586.66;16131275;19;130421;-38
2022/12/01 16:02:38;;;;;;;7.15;4.63;;;;;;;16.84;39.79;102591.31;16128325;19;129513;-38
2022/12/01 16:08:18;;;;;;;6.13;4.30;;;;;;;16.84;39.63;102583.91;16128621;19;129488;-38
2022/12/01 16:13:46;;;;;;;7.22;4.68;;;;;;;16.81;39.81;102587.03;16130176;19;129543;-38
2022/12/01 16:19:07;;;;;;;6.97;4.93;;;;;;;16.79;39.76;102591.91;16127192;19;129848;-38
2022/12/01 16:24:50;;;;;;;9.77;5.75;;;;;;;16.80;39.64;102576.19;16128593;19;130310;-38
2022/12/01 16:30:21;;;;;;;17.48;6.47;;;;;;;16.79;39.81;102580.84;16128264;19;130137;-38
2022/12/01 16:35:43;;;;;;;12.02;6.50;;;;;;;16.78;39.63;102579.13;16128475;19;129387;-41
2022/12/01 16:41:16;;;;;;;13.05;7.68;;;;;;;16.79;39.49;102583.63;16128068;19;130037;-40
2022/12/01 16:46:39;;;;;;;10.43;7.45;;;;;;;16.76;39.71;102579.34;16127318;19;129580;-40
2022/12/01 16:52:00;;;;;;;12.13;6.95;;;;;;;16.84;39.27;102594.97;16116903;19;130930;-39
2022/12/01 16:57:42;;;;;;;9.55;6.75;;;;;;;17.07;39.18;102599.47;16115007;19;129634;-40
2022/12/01 17:03:05;;;;;;;9.57;5.88;;;;;;;17.35;38.84;102610.63;16111161;19;130355;-44
2022/12/01 17:08:27;;;;;;;11.90;6.60;;;;;;;17.59;38.84;102611.34;16128495;19;130021;-39
2022/12/01 17:13:49;;;;;;;10.02;5.97;;;;;;;17.81;38.65;102620.50;16125071;19;131011;-39
2022/12/01 17:19:10;;;;;;;8.93;5.72;;;;;;;17.95;38.26;102609.53;16123995;19;133402;-38
2022/12/01 17:24:32;;;;;;;9.32;5.90;;;;;;;17.99;38.01;102606.16;16126713;19;129696;-38
2022/12/01 17:29:54;;;;;;;9.27;5.82;;;;;;;17.99;37.77;102605.28;16121223;19;129755;-38
2022/12/01 17:35:16;;;;;;;11.23;6.30;;;;;;;17.94;38.39;102597.56;16122223;19;132116;-36
2022/12/01 17:40:38;;;;;;;11.85;5.97;;;;;;;17.89;38.45;102593.69;16120723;19;129894;-37
2022/12/01 17:46:00;;;;;;;10.50;6.05;;;;;;;17.96;38.27;102600.16;16120526;19;129752;-37
2022/12/01 17:51:22;;;;;;;15.93;6.28;;;;;;;18.07;38.14;102596.84;16117749;19;130762;-36
2022/12/01 17:56:44;;;;;;;18.60;5.93;;;;;;;18.40;38.30;102601.78;16120698;19;129327;-37
2022/12/01 18:02:08;;;;;;;14.95;5.20;;;;;;;18.81;38.20;102591.75;16119955;19;130889;-36
2022/12/01 18:07:30;;;;;;;18.52;6.07;;;;;;;19.25;37.96;102591.50;16122513;19;130732;-37
2022/12/01 18:12:52;;;;;;;10.13;4.22;;;;;;;19.67;37.26;102589.41;16121185;19;129540;-37
2022/12/01 18:18:13;;;;;;;8.95;4.53;;;;;;;19.97;37.51;102588.97;16121049;19;129512;-37
2022/12/01 18:23:35;;;;;;;6.28;4.47;;;;;;;20.11;37.07;102598.16;16122537;19;131452;-36
2022/12/01 18:29:05;;;;;;;12.50;4.47;;;;;;;20.10;37.00;102591.78;16121010;19;130181;-37
2022/12/01 18:34:30;;;;;;;10.63;4.28;;;;;;;20.02;37.46;102585.59;16119925;19;130257;-38
2022/12/01 18:39:55;;;;;;;6.72;4.38;;;;;;;19.88;37.58;102590.28;16117351;19;129530;-37
2022/12/01 18:45:17;;;;;;;9.43;4.82;;;;;;;19.73;38.00;102584.91;16032080;19;145319;-37
2022/12/01 18:50:41;;;;;;;13.90;4.57;;;;;;;19.57;38.27;102589.81;16114141;19;129567;-37
2022/12/01 18:56:06;;;;;;;11.80;4.55;;;;;;;19.50;38.19;102589.84;16119355;19;129984;-37
2022/12/01 19:01:40;;;;;;;15.07;4.72;;;;;;;19.48;38.33;102591.97;16120610;19;129048;-36
2022/12/01 19:07:04;;;;;;;9.27;4.20;;;;;;;19.47;38.49;102589.38;16118199;19;130006;-37
2022/12/01 19:12:26;;;;;;;7.28;4.10;;;;;;;19.50;38.87;102580.63;16118950;19;129463;-37
2022/12/01 19:17:47;;;;;;;11.15;4.57;;;;;;;19.68;38.70;102580.88;16120671;19;129556;-36
2022/12/01 19:23:09;;;;;;;13.02;4.03;;;;;;;19.92;38.39;102586.84;16133149;19;128909;-37
2022/12/01 19:28:32;;;;;;;11.25;3.80;;;;;;;20.15;38.39;102574.44;16133244;19;129624;-39
2022/12/01 19:33:54;;;;;;;10.30;4.22;;;;;;;20.36;38.12;102576.13;16134672;19;129281;-37
2022/12/01 19:39:16;;;;;;;9.18;4.28;;;;;;;20.52;37.90;102577.56;16129973;19;130064;-37
2022/12/01 19:44:38;;;;;;;13.18;4.38;;;;;;;20.69;37.72;102575.16;16131107;19;129417;-36
2022/12/01 19:50:00;;;;;;;11.80;4.75;;;;;;;20.84;37.33;102577.66;16130343;19;129303;-37
2022/12/01 19:55:21;;;;;;;9.32;3.63;;;;;;;20.98;37.32;102570.13;16127553;19;129332;-37
2022/12/01 20:00:43;;;;;;;8.93;3.97;;;;;;;21.04;37.17;102582.28;16130218;19;129383;-37
2022/12/01 20:06:29;;;;;;;10.27;4.53;;;;;;;21.05;36.74;102583.97;16129049;19;129463;-37
2022/12/01 20:11:52;;;;;;;6.00;4.00;;;;;;;21.02;37.23;102579.72;16128872;19;130878;-37
2022/12/01 20:17:14;;;;;;;10.93;4.68;;;;;;;20.94;37.25;102581.88;16129163;19;130331;-36
2022/12/01 20:22:36;;;;;;;8.63;4.70;;;;;;;20.84;37.30;102585.16;16126805;19;129528;-37
2022/12/01 20:27:58;;;;;;;9.57;5.18;;;;;;;20.70;36.89;102575.97;16125604;19;129970;-39
2022/12/01 20:33:20;;;;;;;12.18;5.60;;;;;;;20.57;37.33;102583.31;16126942;19;130328;-38
2022/12/01 20:38:42;;;;;;;12.10;5.85;;;;;;;20.45;37.31;102585.94;16132475;19;129884;-36
2022/12/01 20:44:05;;;;;;;10.07;5.28;;;;;;;20.37;37.52;102583.34;16127775;19;129460;-38
2022/12/01 20:49:28;;;;;;;8.27;5.07;;;;;;;20.29;37.70;102576.13;16128229;19;129659;-37
2022/12/01 20:54:50;;;;;;;9.23;4.88;;;;;;;20.24;37.85;102578.69;16125295;19;129510;-37
2022/12/01 21:00:13;;;;;;;11.45;5.38;;;;;;;20.28;37.84;102574.44;16122550;19;130670;-38
2022/12/01 21:05:38;;;;;;;9.45;4.78;;;;;;;20.42;37.83;102577.16;16125849;19;129590;-38
2022/12/01 21:11:04;;;;;;;9.40;5.15;;;;;;;20.50;37.50;102560.25;16125340;19;129504;-37
2022/12/01 21:16:32;;;;;;;11.10;4.88;;;;;;;20.51;37.88;102553.63;16125953;19;128935;-38
2022/12/01 21:21:54;;;;;;;6.95;3.92;;;;;;;20.48;37.85;102561.53;16125519;19;129218;-38
2022/12/01 21:27:17;;;;;;;8.00;4.43;;;;;;;20.41;38.18;102556.00;16124411;19;129327;-38
2022/12/01 21:32:40;;;;;;;11.32;4.78;;;;;;;20.27;38.46;102550.47;16126276;19;130053;-38
2022/12/01 21:38:09;;;;;;;7.32;4.63;;;;;;;20.13;37.90;102548.81;16119956;19;130444;-37
2022/12/01 21:43:31;;;;;;;8.30;4.80;;;;;;;20.00;38.46;102546.88;16122056;19;129334;-37
2022/12/01 21:49:00;;;;;;;8.90;4.97;;;;;;;19.86;38.64;102548.81;16124261;19;129679;-37
2022/12/01 21:54:22;;;;;;;12.48;4.85;;;;;;;19.74;38.41;102544.97;16120661;19;129588;-37
2022/12/01 21:59:43;;;;;;;8.15;5.15;;;;;;;19.60;38.70;102528.31;16124723;19;130564;-38
2022/12/01 22:05:24;;;;;;;9.40;4.93;;;;;;;19.50;38.76;102528.75;16122957;19;130424;-37
2022/12/01 22:11:01;;;;;;;7.40;5.05;;;;;;;19.39;38.66;102515.50;16121342;19;129592;-38
2022/12/01 22:16:39;;;;;;;7.50;5.30;;;;;;;19.28;38.76;102514.22;16120459;19;129389;-37
2022/12/01 22:22:02;;;;;;;7.07;5.00;;;;;;;19.17;38.99;102512.06;16120383;19;129645;-38
2022/12/01 22:27:27;;;;;;;9.82;5.22;;;;;;;19.10;38.96;102511.16;16120473;19;129598;-40
2022/12/01 22:32:59;;;;;;;9.93;5.23;;;;;;;19.03;38.81;102500.94;16122093;19;130944;-38
2022/12/01 22:38:32;;;;;;;7.40;5.40;;;;;;;18.97;38.79;102506.47;16119963;19;131321;-38
2022/12/01 22:43:56;;;;;;;7.82;5.35;;;;;;;18.89;39.19;102501.97;16120823;19;130065;-37
2022/12/01 22:49:21;;;;;;;8.63;5.72;;;;;;;18.84;38.74;102510.03;16120559;19;129832;-37
2022/12/01 22:54:47;;;;;;;8.57;5.43;;;;;;;18.77;38.96;102501.72;16118620;19;129857;-37
2022/12/01 23:00:15;;;;;;;9.57;5.88;;;;;;;18.70;38.87;102503.63;16118314;19;129380;-38
2022/12/01 23:05:37;;;;;;;7.80;5.60;;;;;;;18.63;39.08;102500.81;16118464;19;129574;-38
2022/12/01 23:10:59;;;;;;;8.10;5.15;;;;;;;18.57;39.19;102507.22;16118951;19;129797;-38
2022/12/01 23:16:21;;;;;;;8.13;5.43;;;;;;;18.53;39.19;102511.44;16117761;19;129497;-39
2022/12/01 23:21:43;;;;;;;8.45;5.78;;;;;;;18.48;39.44;102497.34;16116646;19;130688;-42
2022/12/01 23:27:05;;;;;;;6.20;5.38;;;;;;;18.43;39.16;102492.44;16117064;19;130356;-37
2022/12/01 23:32:27;;;;;;;8.52;5.70;;;;;;;18.41;39.35;102483.47;16118674;19;130248;-38
2022/12/01 23:37:49;;;;;;;8.57;5.95;;;;;;;18.38;39.35;102493.03;16116527;19;130007;-37
2022/12/01 23:43:17;;;;;;;9.65;5.93;;;;;;;18.35;38.98;102493.41;16115997;19;130798;-37
2022/12/01 23:48:45;;;;;;;7.03;5.35;;;;;;;18.32;38.93;102488.31;16115343;19;129729;-37
2022/12/01 23:54:19;;;;;;;9.95;5.57;;;;;;;18.27;39.02;102472.31;16113410;19;129266;-38
2022/12/01 23:59:42;;;;;;;10.10;5.55;;;;;;;18.24;39.54;102469.94;16115448;19;130054;-38
